Time;durP1;ratioP1;P1;durP2;ratioP2;P2;SDS_P1;SDS_P2;PMS_P1;PMS_P2;Temp;Humidity;BMP_temperature;BMP_pressure;BME280_temperature;BME280_humidity;BME280_pressure;Samples;Min_cycle;Max_cycle;Signal;HPM_P1;HPM_P2
2022/06/21 00:00:43;;;;;;;3.88;3.42;;;18.40;99.90;;;;;;4990562;28;20238;-69
2022/06/21 00:03:14;;;;;;;6.63;3.90;;;18.50;99.90;;;;;;4992352;28;20214;-69
2022/06/21 00:05:45;;;;;;;4.30;3.95;;;18.50;99.90;;;;;;4987841;28;20206;-69
2022/06/21 00:08:16;;;;;;;3.00;2.80;;;18.50;99.90;;;;;;4986427;28;20601;-67
2022/06/21 00:10:44;;;;;;;11.63;4.00;;;18.40;99.90;;;;;;4995707;28;20198;-68
2022/06/21 00:13:17;;;;;;;5.53;4.65;;;18.50;99.90;;;;;;4990996;28;20276;-67
2022/06/21 00:15:46;;;;;;;4.13;3.78;;;18.30;99.90;;;;;;4991816;28;20206;-68
2022/06/21 00:18:16;;;;;;;5.22;4.65;;;18.10;99.90;;;;;;4991407;28;20618;-68
2022/06/21 00:20:45;;;;;;;4.22;3.20;;;17.90;99.90;;;;;;4991287;28;20254;-68
2022/06/21 00:23:15;;;;;;;4.13;3.83;;;18.10;99.90;;;;;;4990795;28;20232;-68
2022/06/21 00:25:46;;;;;;;4.03;3.72;;;18.10;99.90;;;;;;4990676;28;20260;-69
2022/06/21 00:28:15;;;;;;;5.20;3.53;;;18.00;99.90;;;;;;4991682;28;20237;-69
2022/06/21 00:30:46;;;;;;;4.55;4.15;;;17.90;99.90;;;;;;4991699;28;20622;-69
2022/06/21 00:33:16;;;;;;;5.28;4.75;;;17.60;99.90;;;;;;4990409;28;20269;-69
2022/06/21 00:35:47;;;;;;;4.55;3.95;;;17.50;99.90;;;;;;4987018;28;20206;-69
2022/06/21 00:38:19;;;;;;;6.57;3.83;;;17.40;99.90;;;;;;4991323;28;20198;-68
2022/06/21 00:40:47;;;;;;;3.67;3.38;;;17.30;99.90;;;;;;4991501;28;20240;-69
2022/06/21 00:43:20;;;;;;;5.60;4.97;;;17.30;99.90;;;;;;4990654;28;20225;-69
2022/06/21 00:45:50;;;;;;;4.32;3.92;;;17.20;99.90;;;;;;4991341;28;20679;-69
2022/06/21 00:48:24;;;;;;;6.50;4.25;;;17.00;99.90;;;;;;4991334;28;20214;-69
2022/06/21 00:50:55;;;;;;;5.10;4.60;;;16.70;99.90;;;;;;4991227;28;20260;-69
2022/06/21 00:53:27;;;;;;;5.03;4.50;;;16.50;99.90;;;;;;4990327;28;20270;-70
2022/06/21 00:56:00;;;;;;;5.18;3.67;;;16.40;99.90;;;;;;4985269;28;20264;-70
2022/06/21 00:58:30;;;;;;;4.57;3.42;;;16.50;99.90;;;;;;4990996;28;20621;-70
2022/06/21 01:01:03;;;;;;;6.13;4.28;;;16.50;99.90;;;;;;4991486;28;20232;-70
2022/06/21 01:03:35;;;;;;;4.47;4.07;;;16.50;99.90;;;;;;4990299;28;20781;-68
2022/06/21 01:06:06;;;;;;;6.07;3.80;;;16.90;99.90;;;;;;4990977;28;20226;-69
2022/06/21 01:08:38;;;;;;;5.85;3.72;;;17.40;99.90;;;;;;4996473;28;20198;-71
2022/06/21 01:11:11;;;;;;;4.47;3.90;;;17.60;99.90;;;;;;4989569;28;20226;-69
2022/06/21 01:13:46;;;;;;;4.18;3.33;;;17.50;99.90;;;;;;4990858;28;20288;-69
2022/06/21 01:16:15;;;;;;;4.50;3.35;;;17.60;99.90;;;;;;4993300;28;20801;-70
2022/06/21 01:18:44;;;;;;;3.00;2.80;;;17.50;99.90;;;;;;4995241;28;21110;-69
2022/06/21 01:21:15;;;;;;;3.58;3.28;;;17.40;99.90;;;;;;4988590;28;20198;-69
2022/06/21 01:23:56;;;;;;;3.95;3.42;;;17.60;99.90;;;;;;4991828;28;20305;-70
2022/06/21 01:26:41;;;;;;;4.50;3.42;;;17.60;99.90;;;;;;4992915;28;20253;-70
2022/06/21 01:29:16;;;;;;;3.50;3.20;;;17.70;99.90;;;;;;4989954;28;20286;-69
2022/06/21 01:31:45;;;;;;;3.28;3.08;;;17.80;99.90;;;;;;4989962;28;20224;-69
2022/06/21 01:34:15;;;;;;;3.63;3.25;;;17.80;99.90;;;;;;4989261;28;20225;-69
2022/06/21 01:36:45;;;;;;;3.95;2.92;;;18.00;99.90;;;;;;4985267;28;20321;-68
2022/06/21 01:39:18;;;;;;;3.33;3.03;;;17.90;99.90;;;;;;4994655;28;20206;-70
2022/06/21 01:41:51;;;;;;;3.92;3.00;;;17.60;99.90;;;;;;4990367;28;20256;-70
2022/06/21 01:44:24;;;;;;;2.97;2.78;;;17.40;99.90;;;;;;4989740;28;20197;-70
2022/06/21 01:46:53;;;;;;;3.80;3.40;;;17.10;99.90;;;;;;4998838;28;20233;-68
2022/06/21 01:49:24;;;;;;;3.63;3.40;;;17.10;99.90;;;;;;4992190;28;20260;-69
2022/06/21 01:51:55;;;;;;;3.95;3.65;;;17.00;99.90;;;;;;4995018;28;20309;-69
2022/06/21 01:54:26;;;;;;;4.10;3.55;;;16.90;99.90;;;;;;4993363;28;20272;-70
2022/06/21 01:56:55;;;;;;;8.20;3.35;;;17.10;99.90;;;;;;4989342;28;20666;-69
2022/06/21 01:59:26;;;;;;;6.45;4.00;;;16.80;99.90;;;;;;4993296;28;20661;-69
2022/06/21 02:02:01;;;;;;;4.95;4.35;;;16.60;99.90;;;;;;4995129;28;20309;-67
2022/06/21 02:04:32;;;;;;;4.15;3.65;;;16.50;99.90;;;;;;4996403;28;20671;-70
2022/06/21 02:07:04;;;;;;;4.30;3.60;;;16.50;99.90;;;;;;4984902;28;20198;-69
2022/06/21 02:09:37;;;;;;;3.72;3.42;;;16.50;99.90;;;;;;4986746;28;20821;-70
2022/06/21 02:12:10;;;;;;;5.15;3.65;;;16.90;99.90;;;;;;4987478;28;20277;-69
2022/06/21 02:14:40;;;;;;;4.93;3.20;;;17.10;99.90;;;;;;4981368;28;20252;-70
2022/06/21 02:17:15;;;;;;;8.82;4.65;;;17.40;99.90;;;;;;4997782;28;20205;-70
2022/06/21 02:19:49;;;;;;;4.15;3.63;;;17.20;99.90;;;;;;4994370;28;20264;-70
2022/06/21 02:22:20;;;;;;;3.97;3.67;;;17.50;99.90;;;;;;4993539;28;20606;-70
2022/06/21 02:24:50;;;;;;;3.70;3.40;;;17.40;99.90;;;;;;4999500;28;20209;-70
2022/06/21 02:27:24;;;;;;;3.97;3.65;;;17.50;99.90;;;;;;4984638;28;20237;-70
2022/06/21 02:29:53;;;;;;;4.30;4.00;;;17.40;99.90;;;;;;4994495;28;20257;-70
2022/06/21 02:32:26;;;;;;;3.75;3.35;;;17.60;99.90;;;;;;4990664;28;20317;-70
2022/06/21 02:35:00;;;;;;;3.90;3.20;;;17.60;99.90;;;;;;4973745;28;20730;-70
2022/06/21 02:37:30;;;;;;;4.15;3.75;;;17.40;99.90;;;;;;4971164;28;22360;-68
2022/06/21 02:39:59;;;;;;;5.82;3.40;;;17.50;99.90;;;;;;4972970;28;20206;-70
2022/06/21 02:42:31;;;;;;;3.83;3.22;;;17.50;99.90;;;;;;4971155;28;20249;-70
2022/06/21 02:45:06;;;;;;;4.00;3.60;;;17.20;99.90;;;;;;4976412;28;20202;-70
2022/06/21 02:47:42;;;;;;;4.97;3.95;;;17.50;99.90;;;;;;4976255;28;20212;-69
2022/06/21 02:50:26;;;;;;;3.35;3.05;;;17.50;99.90;;;;;;4973239;28;20245;-69
2022/06/21 02:52:56;;;;;;;3.35;3.08;;;17.80;99.90;;;;;;4970870;28;20233;-70
2022/06/21 02:55:34;;;;;;;3.90;3.60;;;17.90;99.90;;;;;;4974341;28;20310;-69
2022/06/21 02:58:09;;;;;;;3.53;3.22;;;17.70;99.90;;;;;;4969033;28;20680;-69
2022/06/21 03:00:37;;;;;;;4.20;3.80;;;17.60;99.90;;;;;;4973567;28;20233;-69
2022/06/21 03:03:08;;;;;;;7.28;3.75;;;17.50;99.90;;;;;;4970918;28;20266;-68
2022/06/21 03:05:36;;;;;;;3.90;3.60;;;17.50;99.90;;;;;;4976472;28;20214;-69
2022/06/21 03:08:06;;;;;;;5.25;3.45;;;17.60;99.90;;;;;;4963460;28;21035;-68
2022/06/21 03:10:40;;;;;;;6.18;4.63;;;17.70;99.90;;;;;;4975961;28;20234;-69
2022/06/21 03:13:16;;;;;;;4.85;4.45;;;17.70;99.90;;;;;;4974242;28;20280;-70
2022/06/21 03:15:46;;;;;;;5.35;4.85;;;17.70;99.90;;;;;;4971846;28;21901;-69
2022/06/21 03:18:18;;;;;;;4.75;4.35;;;17.00;99.90;;;;;;4973015;28;20602;-69
2022/06/21 03:20:47;;;;;;;5.57;4.00;;;16.40;99.90;;;;;;4978667;28;20261;-69
2022/06/21 03:23:17;;;;;;;6.53;4.30;;;16.10;99.90;;;;;;4971174;28;20214;-69
2022/06/21 03:25:51;;;;;;;10.38;4.30;;;15.90;99.90;;;;;;4972689;28;20202;-70
2022/06/21 03:28:28;;;;;;;4.93;3.83;;;16.00;99.90;;;;;;4973673;28;20198;-69
2022/06/21 03:31:02;;;;;;;6.10;3.83;;;15.70;99.90;;;;;;4972878;28;20257;-70
2022/06/21 03:33:32;;;;;;;8.23;3.97;;;16.00;99.90;;;;;;4970622;28;20241;-67
2022/06/21 03:36:01;;;;;;;6.00;4.70;;;16.10;99.90;;;;;;4967878;28;20226;-69
2022/06/21 03:38:29;;;;;;;4.90;4.40;;;15.70;99.90;;;;;;4973409;28;20214;-70
2022/06/21 03:43:50;;;;;;;5.20;4.75;;;15.60;99.90;;;;;;4970274;28;20226;-70
2022/06/21 03:46:23;;;;;;;5.80;4.80;;;15.80;99.90;;;;;;4974860;28;20213;-70
2022/06/21 03:48:55;;;;;;;6.10;5.00;;;16.20;99.90;;;;;;4955703;28;20214;-70
2022/06/21 03:51:30;;;;;;;5.03;4.55;;;16.30;99.90;;;;;;4970514;28;20222;-70
2022/06/21 03:54:01;;;;;;;5.20;4.75;;;16.60;99.90;;;;;;4972146;28;20226;-70
2022/06/21 03:56:34;;;;;;;4.13;3.83;;;16.90;99.90;;;;;;4979922;28;20238;-70
2022/06/21 03:59:08;;;;;;;5.97;5.38;;;17.10;99.90;;;;;;4972731;28;20264;-70
2022/06/21 04:01:41;;;;;;;4.40;4.00;;;17.00;99.90;;;;;;4971722;28;20206;-70
2022/06/21 04:04:15;;;;;;;5.47;4.90;;;16.70;99.90;;;;;;4973599;28;20202;-70
2022/06/21 04:06:48;;;;;;;6.18;5.68;;;16.90;99.90;;;;;;4971899;28;20194;-70
2022/06/21 04:09:25;;;;;;;6.93;4.82;;;16.70;99.90;;;;;;4968447;28;20265;-70
2022/06/21 04:12:01;;;;;;;5.13;4.57;;;16.10;99.90;;;;;;4974628;28;20226;-69
2022/06/21 04:14:38;;;;;;;5.88;4.95;;;16.20;99.90;;;;;;4971921;28;20754;-70
2022/06/21 04:17:13;;;;;;;5.78;5.28;;;16.40;99.90;;;;;;5017451;23;20286;-63
2022/06/21 04:19:49;;;;;;;6.55;4.68;;;16.20;99.90;;;;;;5005896;28;20212;-62
2022/06/21 04:22:25;;;;;;;7.70;6.97;;;15.80;99.90;;;;;;5019210;28;20194;-62
2022/06/21 04:25:03;;;;;;;7.43;5.75;;;15.60;99.90;;;;;;5003523;28;20271;-63
2022/06/21 04:27:36;;;;;;;7.40;5.78;;;15.30;99.90;;;;;;4992182;28;20295;-63
2022/06/21 04:30:11;;;;;;;7.10;6.50;;;15.00;99.90;;;;;;4989841;28;20973;-63
2022/06/21 04:32:42;;;;;;;8.38;7.68;;;14.60;99.90;;;;;;4993805;28;20384;-63
2022/06/21 04:35:16;;;;;;;7.10;6.40;;;14.20;99.90;;;;;;4993772;28;20755;-63
2022/06/21 04:37:48;;;;;;;7.45;6.75;;;14.10;99.90;;;;;;4992418;28;20279;-63
2022/06/21 04:40:23;;;;;;;9.48;8.15;;;14.40;99.90;;;;;;4991975;28;20205;-62
2022/06/21 04:42:56;;;;;;;8.23;7.47;;;14.20;99.90;;;;;;4991184;28;20288;-62
2022/06/21 04:45:32;;;;;;;8.88;8.15;;;14.10;99.90;;;;;;4992320;28;20225;-63
2022/06/21 04:48:05;;;;;;;;;;;13.90;99.90;;;;;;4993972;28;20181;-62
2022/06/21 04:50:35;;;;;;;;;;;13.70;99.90;;;;;;4989892;28;20894;-62
2022/06/21 04:53:05;;;;;;;;;;;13.70;99.90;;;;;;4994103;28;20226;-61
2022/06/21 04:55:37;;;;;;;;;;;13.60;99.90;;;;;;4993702;28;20261;-62
2022/06/21 04:58:04;;;;;;;;;;;13.60;99.90;;;;;;4992339;28;21272;-62
2022/06/21 05:00:34;;;;;;;;;;;13.40;99.90;;;;;;4992631;28;20821;-61
2022/06/21 05:03:07;;;;;;;;;;;13.20;99.90;;;;;;4993298;28;20227;-62
2022/06/21 05:05:37;;;;;;;;;;;13.20;99.90;;;;;;4992116;28;20227;-62
2022/06/21 05:08:08;;;;;;;;;;;13.20;99.90;;;;;;4991099;28;20235;-63
2022/06/21 05:10:37;;;;;;;;;;;13.30;99.90;;;;;;4993399;28;20204;-62
2022/06/21 05:13:07;;;;;;;;;;;13.40;99.90;;;;;;4994839;28;20207;-63
2022/06/21 05:15:37;;;;;;;;;;;13.50;99.90;;;;;;4995361;28;20195;-61
2022/06/21 05:18:07;;;;;;;;;;;13.40;99.90;;;;;;4997312;28;20688;-63
2022/06/21 05:20:36;;;;;;;;;;;13.30;99.90;;;;;;4992273;28;20960;-62
2022/06/21 05:23:05;;;;;;;;;;;13.40;99.90;;;;;;4993525;28;20332;-62
2022/06/21 05:25:35;;;;;;;;;;;13.40;99.90;;;;;;4997075;28;20211;-62
2022/06/21 05:28:10;;;;;;;;;;;13.50;99.90;;;;;;4997028;28;20281;-63
2022/06/21 05:30:43;;;;;;;;;;;13.40;99.90;;;;;;4992114;28;20199;-62
2022/06/21 05:33:13;;;;;;;;;;;13.50;99.90;;;;;;4994433;28;20209;-61
2022/06/21 05:35:41;;;;;;;;;;;13.50;99.90;;;;;;4997176;28;20290;-61
2022/06/21 05:38:11;;;;;;;;;;;13.60;99.90;;;;;;4996005;28;20211;-62
2022/06/21 05:40:42;;;;;;;;;;;13.80;99.90;;;;;;4995297;28;20207;-62
2022/06/21 05:43:12;;;;;;;;;;;13.90;99.90;;;;;;4995353;28;20293;-62
2022/06/21 05:45:44;;;;;;;;;;;14.00;99.90;;;;;;4995457;28;20287;-62
2022/06/21 05:48:14;;;;;;;;;;;14.10;99.90;;;;;;4997232;28;20654;-62
2022/06/21 05:50:41;;;;;;;;;;;14.30;99.90;;;;;;4991956;28;20779;-61
2022/06/21 05:53:12;;;;;;;;;;;14.50;99.90;;;;;;4995760;28;20210;-61
2022/06/21 05:55:42;;;;;;;;;;;14.60;99.90;;;;;;4996791;28;20318;-62
2022/06/21 05:58:17;;;;;;;;;;;14.70;99.90;;;;;;4995317;28;20234;-62
2022/06/21 06:00:49;;;;;;;;;;;14.70;99.90;;;;;;4993196;28;20967;-61
2022/06/21 06:03:20;;;;;;;;;;;14.70;99.90;;;;;;4994770;28;20732;-62
2022/06/21 06:05:48;;;;;;;;;;;15.00;99.90;;;;;;4994570;28;20207;-62
2022/06/21 06:08:18;;;;;;;;;;;15.00;99.90;;;;;;4993700;28;20265;-62
2022/06/21 06:10:47;;;;;;;;;;;15.10;99.90;;;;;;4993457;28;20277;-61
2022/06/21 06:13:19;;;;;;;;;;;15.10;99.90;;;;;;4990831;28;20199;-61
2022/06/21 06:15:51;;;;;;;;;;;15.20;99.90;;;;;;4995302;28;20208;-62
2022/06/21 06:18:21;;;;;;;;;;;15.20;99.90;;;;;;4992447;28;20231;-61
2022/06/21 06:20:51;;;;;;;;;;;15.30;99.90;;;;;;4992142;28;20281;-61
2022/06/21 06:23:21;;;;;;;;;;;15.40;99.90;;;;;;4992783;28;20290;-61
2022/06/21 06:25:52;;;;;;;;;;;15.40;99.90;;;;;;5006249;28;20787;-62
2022/06/21 06:28:24;;;;;;;;;;;15.70;99.90;;;;;;5010776;28;20199;-62
2022/06/21 06:30:59;;;;;;;;;;;15.80;99.90;;;;;;5011343;28;20231;-62
2022/06/21 06:33:29;;;;;;;;;;;15.90;99.90;;;;;;5010281;28;20235;-62
2022/06/21 06:35:59;;;;;;;;;;;15.90;99.90;;;;;;5012025;28;20211;-62
2022/06/21 06:38:28;;;;;;;;;;;16.10;99.90;;;;;;5013600;28;20290;-62
2022/06/21 06:41:02;;;;;;;;;;;16.10;99.90;;;;;;5013838;28;20230;-62
2022/06/21 06:43:33;;;;;;;;;;;16.20;99.90;;;;;;5013093;28;20290;-62
2022/06/21 06:46:03;;;;;;;;;;;16.30;99.90;;;;;;5013613;28;20261;-62
2022/06/21 06:48:32;;;;;;;;;;;16.40;99.90;;;;;;5013600;28;20208;-61
2022/06/21 06:51:05;;;;;;;;;;;16.40;99.90;;;;;;5013726;28;20207;-62
2022/06/21 06:53:36;;;;;;;;;;;16.50;99.90;;;;;;5012494;28;20195;-62
2022/06/21 06:56:05;;;;;;;;;;;16.60;99.90;;;;;;5012826;28;20290;-62
2022/06/21 06:58:35;;;;;;;;;;;16.80;99.90;;;;;;5013054;28;20726;-61
2022/06/21 07:01:06;;;;;;;;;;;16.90;99.90;;;;;;5013341;28;20257;-62
2022/06/21 07:03:43;;;;;;;;;;;17.00;99.90;;;;;;5007121;28;20204;-62
2022/06/21 07:06:14;;;;;;;;;;;17.10;99.90;;;;;;5017168;28;20253;-62
2022/06/21 07:08:44;;;;;;;;;;;17.30;99.90;;;;;;5013399;28;20245;-62
2022/06/21 07:11:16;;;;;;;;;;;17.60;99.90;;;;;;5013858;28;20318;-62
2022/06/21 07:13:43;;;;;;;;;;;17.70;99.90;;;;;;5013136;28;20257;-62
2022/06/21 07:16:15;;;;;;;;;;;17.70;99.90;;;;;;5014194;28;20676;-62
2022/06/21 07:18:46;;;;;;;;;;;17.70;99.90;;;;;;5013690;28;20621;-61
2022/06/21 07:21:15;;;;;;;;;;;17.90;99.90;;;;;;5013875;28;20657;-63
2022/06/21 07:23:43;;;;;;;;;;;18.00;99.90;;;;;;5012931;28;20211;-62
2022/06/21 07:26:13;;;;;;;;;;;18.10;99.90;;;;;;5014147;28;20229;-62
2022/06/21 07:28:43;;;;;;;;;;;18.20;99.90;;;;;;5014033;28;20579;-61
2022/06/21 07:31:13;;;;;;;;;;;18.40;99.90;;;;;;5013975;28;20394;-62
2022/06/21 07:33:44;;;;;;;;;;;18.50;99.90;;;;;;5012965;28;20287;-62
2022/06/21 07:36:19;;;;;;;;;;;18.60;99.90;;;;;;5014250;28;20302;-61
2022/06/21 07:38:49;;;;;;;;;;;18.80;99.90;;;;;;5013861;28;20237;-62
2022/06/21 07:41:20;;;;;;;;;;;19.00;99.90;;;;;;5013965;28;20207;-62
2022/06/21 07:43:49;;;;;;;;;;;19.00;99.90;;;;;;5012875;28;20203;-62
2022/06/21 07:46:23;;;;;;;;;;;19.10;99.90;;;;;;5013182;28;20257;-62
2022/06/21 07:48:53;;;;;;;;;;;19.20;99.90;;;;;;5013942;28;20195;-62
2022/06/21 07:51:21;;;;;;;;;;;19.40;99.90;;;;;;5007170;28;20632;-61
2022/06/21 07:53:51;;;;;;;;;;;19.60;99.90;;;;;;5006115;28;20232;-62
2022/06/21 07:56:22;;;;;;;;;;;19.70;99.90;;;;;;5012933;28;20208;-62
2022/06/21 07:58:53;;;;;;;;;;;19.80;99.90;;;;;;5007037;28;20277;-62
2022/06/21 08:07:04;;;;;;;;;;;19.60;99.90;;;;;;5016866;28;20684;-62
2022/06/21 08:09:35;;;;;;;;;;;19.90;99.90;;;;;;5012509;28;20666;-62
2022/06/21 08:12:03;;;;;;;;;;;20.00;99.90;;;;;;5012384;28;20230;-61
2022/06/21 08:14:32;;;;;;;;;;;20.10;99.90;;;;;;5013060;28;20191;-62
2022/06/21 08:17:04;;;;;;;;;;;20.20;99.90;;;;;;5012308;28;20211;-62
2022/06/21 08:19:35;;;;;;;;;;;20.10;99.90;;;;;;5012242;28;20211;-62
2022/06/21 08:22:05;;;;;;;;;;;20.30;99.90;;;;;;5012049;28;20207;-62
2022/06/21 08:24:35;;;;;;;;;;;20.50;99.90;;;;;;5012939;28;20269;-62
2022/06/21 08:27:08;;;;;;;;;;;20.70;99.90;;;;;;5012777;28;20290;-62
2022/06/21 08:29:39;;;;;;;;;;;20.80;99.90;;;;;;5012844;28;20318;-62
2022/06/21 08:32:10;;;;;;;;;;;20.80;99.90;;;;;;5011903;28;20211;-62
2022/06/21 08:34:41;;;;;;;;;;;20.70;99.90;;;;;;5012555;28;20249;-61
2022/06/21 08:37:11;;;;;;;;;;;20.60;99.90;;;;;;5013832;28;20203;-62
2022/06/21 08:39:42;;;;;;;;;;;20.60;99.90;;;;;;5011838;28;20286;-62
2022/06/21 08:42:18;;;;;;;;;;;20.60;99.90;;;;;;5011329;28;20743;-61
2022/06/21 08:48:09;;;;;;;;;;;20.50;99.90;;;;;;5016555;28;20226;-62
2022/06/21 08:50:49;;;;;;;;;;;20.50;99.90;;;;;;5015979;28;20253;-62
2022/06/21 08:53:27;;;;;;;;;;;20.50;99.90;;;;;;5015851;28;20253;-62
2022/06/21 08:55:58;;;;;;;;;;;20.60;99.90;;;;;;5016380;28;20195;-62
2022/06/21 08:58:34;;;;;;;;;;;20.80;99.90;;;;;;5016677;28;20230;-63
2022/06/21 09:01:05;;;;;;;;;;;21.00;99.90;;;;;;5016713;28;20237;-62
2022/06/21 09:03:51;;;;;;;;;;;21.50;99.90;;;;;;5016572;28;20211;-62
2022/06/21 09:06:29;;;;;;;;;;;21.70;99.90;;;;;;5022742;28;20230;-62
2022/06/21 09:09:04;;;;;;;;;;;21.70;99.90;;;;;;5015508;28;20302;-63
2022/06/21 09:11:36;;;;;;;;;;;21.80;99.90;;;;;;5017121;28;20562;-62
2022/06/21 09:14:16;;;;;;;;;;;21.60;99.90;;;;;;5015753;28;21153;-62
2022/06/21 09:16:47;;;;;;;;;;;21.80;99.90;;;;;;5015819;28;20207;-62
2022/06/21 09:19:20;;;;;;;;;;;22.10;99.90;;;;;;5015565;28;20241;-63
2022/06/21 09:21:55;;;;;;;;;;;22.20;99.90;;;;;;5015062;28;20691;-62
2022/06/21 09:24:37;;;;;;;;;;;22.70;99.90;;;;;;4997669;28;20210;-62
2022/06/21 09:27:08;;;;;;;;;;;23.00;99.90;;;;;;5015580;28;20199;-63
2022/06/21 09:29:40;;;;;;;;;;;22.90;99.20;;;;;;5015633;28;20443;-63
2022/06/21 09:32:16;;;;;;;;;;;23.00;99.50;;;;;;5014958;28;20368;-62
2022/06/21 09:34:51;;;;;;;;;;;23.20;99.20;;;;;;5015493;28;20224;-62
2022/06/21 09:37:25;;;;;;;;;;;23.40;99.80;;;;;;5016112;28;20242;-62
2022/06/21 09:39:56;;;;;;;;;;;23.60;99.20;;;;;;5018233;28;20282;-63
2022/06/21 09:42:27;;;;;;;;;;;23.70;98.20;;;;;;5020511;28;20203;-62
2022/06/21 09:45:02;;;;;;;;;;;23.80;98.30;;;;;;5014708;28;20207;-63
2022/06/21 09:47:34;;;;;;;;;;;23.90;97.90;;;;;;5014658;28;20235;-63
2022/06/21 09:50:05;;;;;;;;;;;24.20;97.40;;;;;;5014500;28;20253;-62
2022/06/21 09:52:38;;;;;;;;;;;24.30;96.30;;;;;;5013778;28;20207;-63
2022/06/21 09:55:11;;;;;;;;;;;24.30;96.30;;;;;;5008498;28;20234;-63
2022/06/21 09:57:46;;;;;;;;;;;24.10;95.60;;;;;;5014162;28;20629;-63
2022/06/21 10:00:17;;;;;;;;;;;24.40;96.20;;;;;;5014537;28;20218;-62
2022/06/21 10:02:54;;;;;;;;;;;24.40;94.90;;;;;;5014189;28;20564;-62
2022/06/21 10:05:25;;;;;;;;;;;24.50;95.30;;;;;;5014109;28;20712;-62
2022/06/21 10:08:00;;;;;;;;;;;24.80;94.70;;;;;;5014231;28;20637;-62
2022/06/21 10:10:38;;;;;;;;;;;24.50;94.50;;;;;;5013800;28;20620;-62
2022/06/21 10:13:14;;;;;;;;;;;24.20;94.00;;;;;;5013442;28;20199;-62
2022/06/21 10:15:47;;;;;;;;;;;24.20;94.40;;;;;;5007756;28;20290;-63
2022/06/21 10:18:21;;;;;;;;;;;23.90;95.00;;;;;;5032307;22;20633;-64
2022/06/21 10:20:54;;;;;;;;;;;24.00;95.20;;;;;;5028411;28;20522;-65
2022/06/21 10:23:39;;;;;;;;;;;24.10;94.80;;;;;;5032713;28;20301;-64
2022/06/21 10:26:26;;;;;;;;;;;24.20;94.60;;;;;;5032953;28;20275;-66
2022/06/21 10:29:01;;;;;;;;;;;24.10;94.50;;;;;;5013265;28;20211;-67
2022/06/21 10:31:37;;;;;;;;;;;23.90;94.50;;;;;;5013499;28;20203;-67
2022/06/21 10:34:29;;;;;;;;;;;23.80;94.30;;;;;;5012768;28;20758;-66
2022/06/21 10:37:04;;;;;;;;;;;23.80;94.00;;;;;;5005207;28;20735;-67
2022/06/21 10:39:39;;;;;;;;;;;23.80;94.60;;;;;;5000497;28;20203;-66
2022/06/21 10:45:20;;;;;;;;;;;23.70;94.90;;;;;;5013133;28;20742;-66
2022/06/21 10:48:04;;;;;;;;;;;23.60;94.50;;;;;;4987870;28;20200;-66
2022/06/21 10:50:38;;;;;;;;;;;23.40;94.90;;;;;;4994354;28;20254;-66
2022/06/21 10:53:21;;;;;;;;;;;23.50;94.70;;;;;;4993377;28;20210;-66
2022/06/21 10:57:09;;;;;;;;;;;23.40;94.90;;;;;;4994221;28;20563;-66
2022/06/21 10:58:46;;;;;;;;;;;23.60;95.00;;;;;;4993907;28;20203;-66
2022/06/21 11:01:17;;;;;;;;;;;23.40;95.00;;;;;;4993858;28;20207;-66
2022/06/21 11:03:53;;;;;;;;;;;23.40;95.50;;;;;;4993332;28;20232;-66
2022/06/21 11:06:24;;;;;;;;;;;23.40;95.00;;;;;;4994097;28;20637;-66
2022/06/21 11:08:56;;;;;;;;;;;23.40;95.90;;;;;;4993072;28;20606;-67
2022/06/21 11:11:27;;;;;;;;;;;23.50;95.00;;;;;;5001938;28;20688;-67
2022/06/21 11:14:03;;;;;;;;;;;23.60;94.10;;;;;;5011948;28;20199;-67
2022/06/21 11:16:38;;;;;;;;;;;23.50;95.00;;;;;;5011034;28;20214;-67
2022/06/21 11:19:24;;;;;;;;;;;23.50;95.40;;;;;;4967777;28;20208;-66
2022/06/21 11:22:06;;;;;;;;;;;23.30;95.40;;;;;;4973551;28;20208;-67
2022/06/21 11:24:39;;;;;;;;;;;23.30;95.60;;;;;;4974286;28;20208;-66
2022/06/21 11:27:11;;;;;;;;;;;23.60;95.00;;;;;;4974039;28;20625;-67
2022/06/21 11:29:43;;;;;;;;;;;24.40;94.90;;;;;;4973976;28;20632;-65
2022/06/21 11:32:17;;;;;;;;;;;24.80;94.10;;;;;;4973592;28;20223;-67
2022/06/21 11:34:47;;;;;;;;;;;25.10;93.70;;;;;;4967726;28;20204;-66
2022/06/21 11:37:21;;;;;;;;;;;25.40;93.40;;;;;;4968815;28;20217;-67
2022/06/21 11:39:53;;;;;;;;;;;25.80;93.50;;;;;;4972535;28;20204;-67
2022/06/21 11:42:24;;;;;;;;;;;26.30;92.50;;;;;;4973341;28;20209;-67
2022/06/21 11:45:03;;;;;;;;;;;26.90;91.80;;;;;;4973819;28;20733;-64
2022/06/21 11:47:40;;;;;;;;;;;27.10;91.90;;;;;;4973715;28;20704;-64
2022/06/21 11:50:16;;;;;;;;;;;27.50;91.10;;;;;;4973316;28;20732;-64
2022/06/21 11:53:11;;;;;;;;;;;27.10;90.30;;;;;;4972613;28;20212;-65
2022/06/21 11:55:41;;;;;;;;;;;26.60;90.40;;;;;;4973545;28;20619;-64
2022/06/21 11:58:14;;;;;;;;;;;26.60;90.40;;;;;;4973626;28;20258;-64
2022/06/21 12:00:47;;;;;;;;;;;26.90;90.00;;;;;;4973247;28;20192;-64
2022/06/21 12:03:18;;;;;;;;;;;27.40;89.70;;;;;;4972562;28;20267;-64
2022/06/21 12:05:49;;;;;;;;;;;27.50;87.40;;;;;;4973051;28;20204;-64
2022/06/21 12:08:20;;;;;;;;;;;27.50;86.10;;;;;;4978487;28;20220;-64
2022/06/21 12:10:50;;;;;;;;;;;27.70;87.60;;;;;;4969417;28;20255;-65
2022/06/21 12:13:28;;;;;;;;;;;28.30;86.90;;;;;;4972201;28;20748;-65
2022/06/21 12:16:07;;;;;;;;;;;28.00;85.20;;;;;;4973197;28;20235;-64
2022/06/21 12:18:36;;;;;;;;;;;28.30;83.80;;;;;;4968396;28;20216;-64
2022/06/21 12:21:05;;;;;;;;;;;28.30;83.80;;;;;;4973118;28;20239;-64
2022/06/21 12:23:41;;;;;;;;;;;28.60;82.80;;;;;;4972107;28;20239;-64
2022/06/21 12:26:11;;;;;;;;;;;28.20;80.90;;;;;;4973302;28;20633;-64
2022/06/21 12:28:39;;;;;;;;;;;28.30;81.90;;;;;;4973426;28;20276;-64
2022/06/21 12:31:13;;;;;;;;;;;28.60;81.60;;;;;;4972961;28;20567;-64
2022/06/21 12:33:42;;;;;;;;;;;28.30;79.90;;;;;;4972020;28;20694;-64
2022/06/21 12:36:22;;;;;;;;;;;28.20;80.40;;;;;;4973036;28;20709;-64
2022/06/21 12:38:51;;;;;;;;;;;28.20;80.10;;;;;;4961878;28;20200;-65
2022/06/21 12:41:23;;;;;;;;;;;28.60;79.70;;;;;;4990003;28;20250;-64
2022/06/21 12:43:55;;;;;;;;;;;28.90;80.40;;;;;;4990614;28;20704;-64
2022/06/21 12:46:30;;;;;;;;;;;29.00;78.40;;;;;;4966589;28;20287;-64
2022/06/21 12:49:06;;;;;;;;;;;29.50;78.20;;;;;;4972457;28;20204;-64
2022/06/21 12:51:39;;;;;;;;;;;29.10;78.50;;;;;;4972975;28;20200;-64
2022/06/21 12:54:21;;;;;;;;;;;29.40;78.60;;;;;;4971945;28;20571;-64
2022/06/21 12:56:58;;;;;;;;;;;29.30;77.60;;;;;;4972828;28;20274;-65
2022/06/21 12:59:37;;;;;;;;;;;29.70;75.60;;;;;;4972504;28;20258;-65
2022/06/21 13:02:17;;;;;;;;;;;29.50;76.20;;;;;;4972045;28;20235;-64
2022/06/21 13:04:51;;;;;;;;;;;29.20;75.50;;;;;;4972904;28;20583;-65
2022/06/21 13:07:25;;;;;;;;;;;29.40;74.40;;;;;;4974705;28;20200;-64
2022/06/21 13:10:02;;;;;;;;;;;29.50;77.00;;;;;;4979862;28;20191;-64
2022/06/21 13:12:39;;;;;;;;;;;29.40;75.30;;;;;;4972845;28;20251;-64
2022/06/21 13:15:25;;;;;;;;;;;28.80;74.00;;;;;;4972798;28;20626;-64
2022/06/21 13:18:08;;;;;;;;;;;28.30;74.40;;;;;;4972561;28;20208;-65
2022/06/21 13:20:41;;;;;;;;;;;27.80;73.80;;;;;;4969689;28;20208;-64
2022/06/21 13:23:13;;;;;;;;;;;27.90;74.70;;;;;;4971387;28;20227;-65
2022/06/21 13:25:47;;;;;;;;;;;28.30;74.20;;;;;;4972792;28;20200;-65
2022/06/21 13:28:20;;;;;;;;;;;28.80;75.30;;;;;;4971199;28;20239;-65
2022/06/21 13:30:51;;;;;;;;;;;29.20;72.80;;;;;;4972460;28;20206;-65
2022/06/21 13:33:21;;;;;;;;;;;29.50;73.70;;;;;;4968288;28;20208;-65
2022/06/21 13:35:57;;;;;;;;;;;29.40;72.70;;;;;;4969869;28;20620;-65
2022/06/21 13:38:29;;;;;;;;;;;29.40;71.60;;;;;;4975847;28;20761;-65
2022/06/21 13:41:03;;;;;;;;;;;29.10;72.80;;;;;;4976024;28;20238;-64
2022/06/21 13:43:35;;;;;;;;;;;28.70;72.80;;;;;;4975447;28;20230;-64
2022/06/21 13:46:11;;;;;;;;;;;28.60;73.40;;;;;;4976240;28;20677;-64
2022/06/21 13:48:42;;;;;;;;;;;28.30;73.80;;;;;;4975868;28;20258;-64
2022/06/21 13:51:23;;;;;;;;;;;27.80;73.10;;;;;;4975730;28;20247;-64
2022/06/21 13:53:52;;;;;;;;;;;27.50;74.00;;;;;;4974649;28;20254;-65
2022/06/21 13:56:22;;;;;;;;;;;27.50;74.00;;;;;;4975609;28;20228;-64
2022/06/21 13:58:54;;;;;;;;;;;27.70;74.30;;;;;;4994632;28;20599;-64
2022/06/21 14:01:24;;;;;;;;;;;27.90;74.80;;;;;;4969537;28;20295;-64
2022/06/21 14:04:02;;;;;;;;;;;28.40;72.30;;;;;;4969161;28;20254;-65
2022/06/21 14:06:33;;;;;;;;;;;28.70;72.80;;;;;;4975385;28;20572;-65
2022/06/21 14:09:04;;;;;;;;;;;28.70;73.60;;;;;;4973948;28;20259;-65
2022/06/21 14:11:34;;;;;;;;;;;29.00;73.30;;;;;;4994184;28;20621;-65
2022/06/21 14:14:07;;;;;;;;;;;29.40;72.80;;;;;;4993040;28;20678;-65
2022/06/21 14:16:37;;;;;;;;;;;29.20;71.80;;;;;;4993803;28;20661;-65
2022/06/21 14:19:11;;;;;;;;;;;29.30;71.50;;;;;;4994345;28;20204;-65
2022/06/21 14:21:43;;;;;;;;;;;29.60;72.30;;;;;;4993843;28;20195;-66
2022/06/21 14:24:15;;;;;;;;;;;29.30;72.00;;;;;;4993125;28;20635;-66
2022/06/21 14:26:47;;;;;;;;;;;29.70;72.30;;;;;;4993758;28;20339;-66
2022/06/21 14:29:19;;;;;;;;;;;30.20;71.50;;;;;;4993811;28;20207;-65